Pendleton, New York
Current Conditions -  °F | °C
As of 3:53 PM on Sunday 21 Dec 2014 (Local Time) from KIAG Reporting Station
Broken Clouds Broken Clouds  
Wind Chill: 26°   Ceiling: 2800
Heat Index: 32°   Visibility: 10mi
Dew Point: 22°   Wind: 6mph
Humidity: 66%   Direction: 210°SSW
Pressure: 30.28"   Gusts: NA
Location:  43.0772°N, 78.8339°W
Report Text: KIAG 212053Z 21005KT 10SM BKN028 BKN070 00/M06 A3028 RMK AO2 SLP269 T00001056 55001
Loading
Personal Weather Stations






























Interactive Weather Map New forecast layout! Learn more

10-Day Weather Forecast

Advertisements
Track Severe Weather on mobile